sensor_id;sensor_type;location;lat;lon;timestamp;temperature;humidity
8475;DHT22;4274;52.012;8.448;2023-07-20T00:00:35;15.30;99.90
8475;DHT22;4274;52.012;8.448;2023-07-20T00:03:12;15.30;99.90
8475;DHT22;4274;52.012;8.448;2023-07-20T00:05:45;15.30;99.90
8475;DHT22;4274;52.012;8.448;2023-07-20T00:08:10;15.40;99.90
8475;DHT22;4274;52.012;8.448;2023-07-20T00:10:36;15.30;99.90
8475;DHT22;4274;52.012;8.448;2023-07-20T00:13:01;15.30;99.90
8475;DHT22;4274;52.012;8.448;2023-07-20T00:15:28;15.30;99.90
8475;DHT22;4274;52.012;8.448;2023-07-20T00:17:53;15.30;99.90
8475;DHT22;4274;52.012;8.448;2023-07-20T00:20:19;15.30;99.90
8475;DHT22;4274;52.012;8.448;2023-07-20T00:22:44;15.30;99.90
8475;DHT22;4274;52.012;8.448;2023-07-20T00:25:10;15.40;99.90
8475;DHT22;4274;52.012;8.448;2023-07-20T00:27:37;15.40;99.90
8475;DHT22;4274;52.012;8.448;2023-07-20T00:30:03;15.40;99.90
8475;DHT22;4274;52.012;8.448;2023-07-20T00:32:29;15.40;99.90
8475;DHT22;4274;52.012;8.448;2023-07-20T00:34:55;15.50;99.90
8475;DHT22;4274;52.012;8.448;2023-07-20T00:37:20;15.50;99.90
8475;DHT22;4274;52.012;8.448;2023-07-20T00:39:46;15.50;99.90
8475;DHT22;4274;52.012;8.448;2023-07-20T00:42:12;15.50;99.90
8475;DHT22;4274;52.012;8.448;2023-07-20T00:44:37;15.50;99.90
8475;DHT22;4274;52.012;8.448;2023-07-20T00:47:03;15.50;99.90
8475;DHT22;4274;52.012;8.448;2023-07-20T00:49:29;15.50;99.90
8475;DHT22;4274;52.012;8.448;2023-07-20T00:51:55;15.50;99.90
8475;DHT22;4274;52.012;8.448;2023-07-20T00:54:20;15.50;99.90
8475;DHT22;4274;52.012;8.448;2023-07-20T00:56:46;15.50;99.90
8475;DHT22;4274;52.012;8.448;2023-07-20T00:59:13;15.60;99.90
8475;DHT22;4274;52.012;8.448;2023-07-20T01:01:38;15.50;99.90
8475;DHT22;4274;52.012;8.448;2023-07-20T01:04:04;15.60;99.90
8475;DHT22;4274;52.012;8.448;2023-07-20T01:06:45;15.60;99.90
8475;DHT22;4274;52.012;8.448;2023-07-20T01:09:24;15.60;99.90
8475;DHT22;4274;52.012;8.448;2023-07-20T01:12:14;15.70;99.90
8475;DHT22;4274;52.012;8.448;2023-07-20T01:14:41;15.70;99.90
8475;DHT22;4274;52.012;8.448;2023-07-20T01:17:07;15.70;99.90
8475;DHT22;4274;52.012;8.448;2023-07-20T01:19:32;15.70;99.90
8475;DHT22;4274;52.012;8.448;2023-07-20T01:30:50;15.70;99.90
8475;DHT22;4274;52.012;8.448;2023-07-20T01:33:19;15.60;99.90
8475;DHT22;4274;52.012;8.448;2023-07-20T01:35:58;15.60;99.90
8475;DHT22;4274;52.012;8.448;2023-07-20T01:38:25;15.60;99.90
8475;DHT22;4274;52.012;8.448;2023-07-20T01:40:51;15.60;99.90
8475;DHT22;4274;52.012;8.448;2023-07-20T01:43:17;15.60;99.90
8475;DHT22;4274;52.012;8.448;2023-07-20T01:45:43;15.70;99.90
8475;DHT22;4274;52.012;8.448;2023-07-20T01:48:09;15.70;99.90
8475;DHT22;4274;52.012;8.448;2023-07-20T01:50:35;15.70;99.90
8475;DHT22;4274;52.012;8.448;2023-07-20T01:53:01;15.60;99.90
8475;DHT22;4274;52.012;8.448;2023-07-20T01:55:26;15.60;99.90
8475;DHT22;4274;52.012;8.448;2023-07-20T01:57:53;15.60;99.90
8475;DHT22;4274;52.012;8.448;2023-07-20T02:06:06;15.50;99.90
8475;DHT22;4274;52.012;8.448;2023-07-20T02:08:32;15.50;99.90
8475;DHT22;4274;52.012;8.448;2023-07-20T02:10:57;15.60;99.90
8475;DHT22;4274;52.012;8.448;2023-07-20T02:13:23;15.60;99.90
8475;DHT22;4274;52.012;8.448;2023-07-20T02:15:48;15.60;99.90
8475;DHT22;4274;52.012;8.448;2023-07-20T02:18:15;15.60;99.90
8475;DHT22;4274;52.012;8.448;2023-07-20T02:20:41;15.60;99.90
8475;DHT22;4274;52.012;8.448;2023-07-20T02:23:07;15.60;99.90
8475;DHT22;4274;52.012;8.448;2023-07-20T02:25:33;15.60;99.90
8475;DHT22;4274;52.012;8.448;2023-07-20T02:27:58;15.60;99.90
8475;DHT22;4274;52.012;8.448;2023-07-20T02:30:24;15.60;99.90
8475;DHT22;4274;52.012;8.448;2023-07-20T02:32:50;15.50;99.90
8475;DHT22;4274;52.012;8.448;2023-07-20T02:35:16;15.60;99.90
8475;DHT22;4274;52.012;8.448;2023-07-20T02:37:41;15.50;99.90
8475;DHT22;4274;52.012;8.448;2023-07-20T02:40:08;15.60;99.90
8475;DHT22;4274;52.012;8.448;2023-07-20T02:42:34;15.50;99.90
8475;DHT22;4274;52.012;8.448;2023-07-20T02:45:01;15.50;99.90
8475;DHT22;4274;52.012;8.448;2023-07-20T02:47:26;15.50;99.90
8475;DHT22;4274;52.012;8.448;2023-07-20T02:49:52;15.50;99.90
8475;DHT22;4274;52.012;8.448;2023-07-20T02:52:17;15.50;99.90
8475;DHT22;4274;52.012;8.448;2023-07-20T02:54:43;15.40;99.90
8475;DHT22;4274;52.012;8.448;2023-07-20T02:57:08;15.40;99.90
8475;DHT22;4274;52.012;8.448;2023-07-20T02:59:34;15.40;99.90
8475;DHT22;4274;52.012;8.448;2023-07-20T03:01:59;15.40;99.90
8475;DHT22;4274;52.012;8.448;2023-07-20T03:04:28;15.40;99.90
8475;DHT22;4274;52.012;8.448;2023-07-20T03:06:54;15.40;99.90
8475;DHT22;4274;52.012;8.448;2023-07-20T03:09:19;15.40;99.90
8475;DHT22;4274;52.012;8.448;2023-07-20T03:11:45;15.40;99.90
8475;DHT22;4274;52.012;8.448;2023-07-20T03:14:11;15.40;99.90
8475;DHT22;4274;52.012;8.448;2023-07-20T03:16:36;15.40;99.90
8475;DHT22;4274;52.012;8.448;2023-07-20T03:19:02;15.40;99.90
8475;DHT22;4274;52.012;8.448;2023-07-20T03:21:29;15.40;99.90
8475;DHT22;4274;52.012;8.448;2023-07-20T03:23:54;15.50;99.90
8475;DHT22;4274;52.012;8.448;2023-07-20T03:26:20;15.50;99.90
8475;DHT22;4274;52.012;8.448;2023-07-20T03:28:46;15.50;99.90
8475;DHT22;4274;52.012;8.448;2023-07-20T03:31:11;15.40;99.90
8475;DHT22;4274;52.012;8.448;2023-07-20T03:33:37;15.40;99.90
8475;DHT22;4274;52.012;8.448;2023-07-20T03:36:03;15.40;99.90
8475;DHT22;4274;52.012;8.448;2023-07-20T03:38:28;15.40;99.90
8475;DHT22;4274;52.012;8.448;2023-07-20T03:40:56;15.40;99.90
8475;DHT22;4274;52.012;8.448;2023-07-20T03:43:23;15.30;99.90
8475;DHT22;4274;52.012;8.448;2023-07-20T03:45:49;15.30;99.90
8475;DHT22;4274;52.012;8.448;2023-07-20T03:48:20;15.30;99.90
8475;DHT22;4274;52.012;8.448;2023-07-20T03:50:48;15.30;99.90
8475;DHT22;4274;52.012;8.448;2023-07-20T03:53:14;15.30;99.90
8475;DHT22;4274;52.012;8.448;2023-07-20T03:55:41;15.20;99.90
8475;DHT22;4274;52.012;8.448;2023-07-20T03:58:07;15.10;99.90
8475;DHT22;4274;52.012;8.448;2023-07-20T04:00:34;14.90;99.90
8475;DHT22;4274;52.012;8.448;2023-07-20T04:02:59;14.80;99.90
8475;DHT22;4274;52.012;8.448;2023-07-20T04:05:25;14.70;99.90
8475;DHT22;4274;52.012;8.448;2023-07-20T04:07:51;14.60;99.90
8475;DHT22;4274;52.012;8.448;2023-07-20T04:10:17;14.50;99.90
8475;DHT22;4274;52.012;8.448;2023-07-20T04:12:44;14.40;99.90
8475;DHT22;4274;52.012;8.448;2023-07-20T04:15:10;14.30;99.90
8475;DHT22;4274;52.012;8.448;2023-07-20T04:17:36;14.20;99.90
8475;DHT22;4274;52.012;8.448;2023-07-20T04:20:01;14.10;99.90
8475;DHT22;4274;52.012;8.448;2023-07-20T04:22:28;14.10;99.90
8475;DHT22;4274;52.012;8.448;2023-07-20T04:24:54;14.00;99.90
8475;DHT22;4274;52.012;8.448;2023-07-20T04:27:19;14.00;99.90
8475;DHT22;4274;52.012;8.448;2023-07-20T04:29:45;13.90;99.90
8475;DHT22;4274;52.012;8.448;2023-07-20T04:32:10;13.90;99.90
8475;DHT22;4274;52.012;8.448;2023-07-20T04:34:36;13.90;99.90
8475;DHT22;4274;52.012;8.448;2023-07-20T04:37:03;13.90;99.90
8475;DHT22;4274;52.012;8.448;2023-07-20T04:39:29;13.90;99.90
8475;DHT22;4274;52.012;8.448;2023-07-20T04:41:54;13.90;99.90
8475;DHT22;4274;52.012;8.448;2023-07-20T04:44:20;13.90;99.90
8475;DHT22;4274;52.012;8.448;2023-07-20T04:46:45;13.90;99.90
8475;DHT22;4274;52.012;8.448;2023-07-20T04:49:11;13.90;99.90
8475;DHT22;4274;52.012;8.448;2023-07-20T04:51:38;13.90;99.90
8475;DHT22;4274;52.012;8.448;2023-07-20T04:54:03;13.90;99.90
8475;DHT22;4274;52.012;8.448;2023-07-20T04:56:29;13.90;99.90
8475;DHT22;4274;52.012;8.448;2023-07-20T04:58:55;14.00;99.90
8475;DHT22;4274;52.012;8.448;2023-07-20T05:01:20;14.00;99.90
8475;DHT22;4274;52.012;8.448;2023-07-20T05:03:46;14.00;99.90
8475;DHT22;4274;52.012;8.448;2023-07-20T05:06:12;14.00;99.90
8475;DHT22;4274;52.012;8.448;2023-07-20T05:08:37;14.00;99.90
8475;DHT22;4274;52.012;8.448;2023-07-20T05:11:04;14.10;99.90
8475;DHT22;4274;52.012;8.448;2023-07-20T05:13:30;14.10;99.90
8475;DHT22;4274;52.012;8.448;2023-07-20T05:15:55;14.10;99.90
8475;DHT22;4274;52.012;8.448;2023-07-20T05:18:21;14.20;99.90
8475;DHT22;4274;52.012;8.448;2023-07-20T05:20:47;14.30;99.90
8475;DHT22;4274;52.012;8.448;2023-07-20T05:23:13;14.30;99.90
8475;DHT22;4274;52.012;8.448;2023-07-20T05:25:39;14.30;99.90
8475;DHT22;4274;52.012;8.448;2023-07-20T05:28:04;14.50;99.90
8475;DHT22;4274;52.012;8.448;2023-07-20T05:30:30;14.60;99.90
8475;DHT22;4274;52.012;8.448;2023-07-20T05:32:56;14.60;99.90
8475;DHT22;4274;52.012;8.448;2023-07-20T05:35:21;14.60;99.90
8475;DHT22;4274;52.012;8.448;2023-07-20T05:37:47;14.60;99.90
8475;DHT22;4274;52.012;8.448;2023-07-20T05:40:14;14.60;99.90
8475;DHT22;4274;52.012;8.448;2023-07-20T05:42:47;14.60;99.90
8475;DHT22;4274;52.012;8.448;2023-07-20T05:45:14;14.60;99.90
8475;DHT22;4274;52.012;8.448;2023-07-20T05:47:41;14.70;99.90
8475;DHT22;4274;52.012;8.448;2023-07-20T05:50:07;14.70;99.90
8475;DHT22;4274;52.012;8.448;2023-07-20T05:52:33;14.70;99.90
8475;DHT22;4274;52.012;8.448;2023-07-20T05:54:58;14.70;99.90
8475;DHT22;4274;52.012;8.448;2023-07-20T05:57:24;14.80;99.90
8475;DHT22;4274;52.012;8.448;2023-07-20T05:59:50;14.80;99.90
8475;DHT22;4274;52.012;8.448;2023-07-20T06:02:16;14.80;99.90
8475;DHT22;4274;52.012;8.448;2023-07-20T06:04:41;14.90;99.90
8475;DHT22;4274;52.012;8.448;2023-07-20T06:07:07;15.00;99.90
8475;DHT22;4274;52.012;8.448;2023-07-20T06:09:33;15.00;99.90
8475;DHT22;4274;52.012;8.448;2023-07-20T06:11:59;15.10;99.90
8475;DHT22;4274;52.012;8.448;2023-07-20T06:14:24;15.10;99.90
8475;DHT22;4274;52.012;8.448;2023-07-20T06:16:50;15.20;99.90
8475;DHT22;4274;52.012;8.448;2023-07-20T06:19:16;15.20;99.90
8475;DHT22;4274;52.012;8.448;2023-07-20T06:21:41;15.20;99.90
8475;DHT22;4274;52.012;8.448;2023-07-20T06:24:07;15.20;99.90
8475;DHT22;4274;52.012;8.448;2023-07-20T06:26:33;15.30;99.90
8475;DHT22;4274;52.012;8.448;2023-07-20T06:29:07;15.30;99.90
8475;DHT22;4274;52.012;8.448;2023-07-20T06:31:33;15.40;99.90
8475;DHT22;4274;52.012;8.448;2023-07-20T06:33:59;15.50;99.90
8475;DHT22;4274;52.012;8.448;2023-07-20T06:36:25;15.50;99.90
8475;DHT22;4274;52.012;8.448;2023-07-20T06:38:51;15.60;99.90
8475;DHT22;4274;52.012;8.448;2023-07-20T06:41:17;15.80;99.90
8475;DHT22;4274;52.012;8.448;2023-07-20T06:43:43;15.90;99.90
8475;DHT22;4274;52.012;8.448;2023-07-20T06:46:09;16.00;99.90
8475;DHT22;4274;52.012;8.448;2023-07-20T06:48:34;16.10;99.90
8475;DHT22;4274;52.012;8.448;2023-07-20T06:51:00;16.30;99.90
8475;DHT22;4274;52.012;8.448;2023-07-20T06:53:26;16.60;99.90
8475;DHT22;4274;52.012;8.448;2023-07-20T06:55:52;16.80;99.90
8475;DHT22;4274;52.012;8.448;2023-07-20T06:58:18;17.10;99.90
8475;DHT22;4274;52.012;8.448;2023-07-20T07:00:44;17.30;99.90
8475;DHT22;4274;52.012;8.448;2023-07-20T07:03:10;17.10;99.90
8475;DHT22;4274;52.012;8.448;2023-07-20T07:05:36;17.00;99.90
8475;DHT22;4274;52.012;8.448;2023-07-20T07:08:04;16.70;99.90
8475;DHT22;4274;52.012;8.448;2023-07-20T07:10:30;16.60;99.90
8475;DHT22;4274;52.012;8.448;2023-07-20T07:12:55;16.50;99.90
8475;DHT22;4274;52.012;8.448;2023-07-20T07:15:21;16.40;99.90
8475;DHT22;4274;52.012;8.448;2023-07-20T07:17:46;16.50;99.90
8475;DHT22;4274;52.012;8.448;2023-07-20T07:20:12;16.50;99.90
8475;DHT22;4274;52.012;8.448;2023-07-20T07:22:38;16.50;99.90
8475;DHT22;4274;52.012;8.448;2023-07-20T07:25:03;16.50;99.90
8475;DHT22;4274;52.012;8.448;2023-07-20T07:27:29;16.50;99.90
8475;DHT22;4274;52.012;8.448;2023-07-20T07:29:55;16.40;99.90
8475;DHT22;4274;52.012;8.448;2023-07-20T07:32:20;16.40;99.90
8475;DHT22;4274;52.012;8.448;2023-07-20T07:34:46;16.50;99.90
8475;DHT22;4274;52.012;8.448;2023-07-20T07:37:13;16.60;99.90
8475;DHT22;4274;52.012;8.448;2023-07-20T07:39:39;16.60;99.90
8475;DHT22;4274;52.012;8.448;2023-07-20T07:42:05;16.70;99.90
8475;DHT22;4274;52.012;8.448;2023-07-20T07:44:31;16.90;99.90
8475;DHT22;4274;52.012;8.448;2023-07-20T07:46:56;17.00;99.90
8475;DHT22;4274;52.012;8.448;2023-07-20T07:49:22;17.10;99.90
8475;DHT22;4274;52.012;8.448;2023-07-20T07:51:48;17.40;99.90
8475;DHT22;4274;52.012;8.448;2023-07-20T07:54:13;17.60;99.90
8475;DHT22;4274;52.012;8.448;2023-07-20T07:56:39;17.80;99.90
8475;DHT22;4274;52.012;8.448;2023-07-20T07:59:06;17.90;99.90
8475;DHT22;4274;52.012;8.448;2023-07-20T08:01:32;18.10;99.90
8475;DHT22;4274;52.012;8.448;2023-07-20T08:03:57;18.30;99.90
8475;DHT22;4274;52.012;8.448;2023-07-20T08:06:23;18.40;99.90
8475;DHT22;4274;52.012;8.448;2023-07-20T08:08:50;18.60;99.90
8475;DHT22;4274;52.012;8.448;2023-07-20T08:11:15;18.80;99.90
8475;DHT22;4274;52.012;8.448;2023-07-20T08:13:41;18.80;99.90
8475;DHT22;4274;52.012;8.448;2023-07-20T08:16:07;18.70;99.90
8475;DHT22;4274;52.012;8.448;2023-07-20T08:18:33;18.60;99.90
8475;DHT22;4274;52.012;8.448;2023-07-20T08:20:58;18.40;99.90
8475;DHT22;4274;52.012;8.448;2023-07-20T08:23:24;18.40;99.90
8475;DHT22;4274;52.012;8.448;2023-07-20T08:25:49;18.50;99.90
8475;DHT22;4274;52.012;8.448;2023-07-20T08:28:16;18.80;99.90
8475;DHT22;4274;52.012;8.448;2023-07-20T08:30:43;18.90;99.90
8475;DHT22;4274;52.012;8.448;2023-07-20T08:33:10;19.00;99.90
8475;DHT22;4274;52.012;8.448;2023-07-20T08:35:37;19.30;99.90
8475;DHT22;4274;52.012;8.448;2023-07-20T08:38:02;19.50;99.90
8475;DHT22;4274;52.012;8.448;2023-07-20T08:40:33;19.60;99.90
8475;DHT22;4274;52.012;8.448;2023-07-20T08:42:59;19.60;99.90
8475;DHT22;4274;52.012;8.448;2023-07-20T08:45:28;19.40;99.90
8475;DHT22;4274;52.012;8.448;2023-07-20T08:47:58;19.10;99.90
8475;DHT22;4274;52.012;8.448;2023-07-20T08:50:27;18.90;99.90
8475;DHT22;4274;52.012;8.448;2023-07-20T08:52:56;19.10;99.90
8475;DHT22;4274;52.012;8.448;2023-07-20T08:55:23;19.60;99.90
8475;DHT22;4274;52.012;8.448;2023-07-20T08:57:50;20.10;99.90
8475;DHT22;4274;52.012;8.448;2023-07-20T09:00:20;20.40;99.90
8475;DHT22;4274;52.012;8.448;2023-07-20T09:02:46;20.80;99.90
8475;DHT22;4274;52.012;8.448;2023-07-20T09:05:12;21.00;99.90
8475;DHT22;4274;52.012;8.448;2023-07-20T09:07:40;21.10;99.90
8475;DHT22;4274;52.012;8.448;2023-07-20T09:10:09;21.00;99.90
8475;DHT22;4274;52.012;8.448;2023-07-20T09:12:37;20.80;99.90
8475;DHT22;4274;52.012;8.448;2023-07-20T09:15:04;20.50;99.90
8475;DHT22;4274;52.012;8.448;2023-07-20T09:17:30;20.20;99.90
8475;DHT22;4274;52.012;8.448;2023-07-20T09:19:55;20.40;99.90
8475;DHT22;4274;52.012;8.448;2023-07-20T09:22:21;20.60;99.90
8475;DHT22;4274;52.012;8.448;2023-07-20T09:24:47;20.90;99.90
8475;DHT22;4274;52.012;8.448;2023-07-20T09:27:12;21.30;99.90
8475;DHT22;4274;52.012;8.448;2023-07-20T09:29:51;21.70;99.90
8475;DHT22;4274;52.012;8.448;2023-07-20T09:32:21;22.20;99.90
8475;DHT22;4274;52.012;8.448;2023-07-20T09:34:47;22.30;99.90
8475;DHT22;4274;52.012;8.448;2023-07-20T09:37:13;21.90;99.90
8475;DHT22;4274;52.012;8.448;2023-07-20T09:39:43;21.80;99.90
8475;DHT22;4274;52.012;8.448;2023-07-20T09:42:13;21.80;99.90
8475;DHT22;4274;52.012;8.448;2023-07-20T09:44:39;21.90;99.90
8475;DHT22;4274;52.012;8.448;2023-07-20T09:47:06;22.10;99.90
8475;DHT22;4274;52.012;8.448;2023-07-20T09:49:32;22.30;99.90
8475;DHT22;4274;52.012;8.448;2023-07-20T09:51:58;22.80;99.90
8475;DHT22;4274;52.012;8.448;2023-07-20T09:54:26;23.30;99.90
8475;DHT22;4274;52.012;8.448;2023-07-20T09:56:54;23.80;99.90
8475;DHT22;4274;52.012;8.448;2023-07-20T09:59:19;24.50;99.90
8475;DHT22;4274;52.012;8.448;2023-07-20T10:01:46;25.20;99.90
8475;DHT22;4274;52.012;8.448;2023-07-20T10:04:14;25.70;99.90
8475;DHT22;4274;52.012;8.448;2023-07-20T10:06:43;25.90;99.90
8475;DHT22;4274;52.012;8.448;2023-07-20T10:09:14;25.70;99.90
8475;DHT22;4274;52.012;8.448;2023-07-20T10:11:49;25.40;99.90
8475;DHT22;4274;52.012;8.448;2023-07-20T10:14:19;25.40;99.90
8475;DHT22;4274;52.012;8.448;2023-07-20T10:16:50;26.00;99.90
8475;DHT22;4274;52.012;8.448;2023-07-20T10:19:31;26.80;99.90
8475;DHT22;4274;52.012;8.448;2023-07-20T10:22:14;27.40;99.90
8475;DHT22;4274;52.012;8.448;2023-07-20T10:24:39;26.90;99.90
8475;DHT22;4274;52.012;8.448;2023-07-20T10:27:07;26.50;99.90
8475;DHT22;4274;52.012;8.448;2023-07-20T10:29:32;26.30;99.90
8475;DHT22;4274;52.012;8.448;2023-07-20T10:31:58;25.80;99.90
8475;DHT22;4274;52.012;8.448;2023-07-20T10:34:25;25.90;99.90
8475;DHT22;4274;52.012;8.448;2023-07-20T10:36:50;26.40;99.90
8475;DHT22;4274;52.012;8.448;2023-07-20T10:39:33;26.70;99.90
8475;DHT22;4274;52.012;8.448;2023-07-20T10:42:12;26.40;98.20
8475;DHT22;4274;52.012;8.448;2023-07-20T10:44:38;25.70;98.30
8475;DHT22;4274;52.012;8.448;2023-07-20T10:47:12;24.90;99.70
8475;DHT22;4274;52.012;8.448;2023-07-20T10:49:59;24.90;99.80
8475;DHT22;4274;52.012;8.448;2023-07-20T10:52:38;25.10;99.80
8475;DHT22;4274;52.012;8.448;2023-07-20T10:55:18;24.80;99.90
8475;DHT22;4274;52.012;8.448;2023-07-20T11:00:33;25.50;99.90
8475;DHT22;4274;52.012;8.448;2023-07-20T11:02:59;26.20;99.90
8475;DHT22;4274;52.012;8.448;2023-07-20T11:05:40;26.60;97.90
8475;DHT22;4274;52.012;8.448;2023-07-20T11:08:11;27.10;99.60
8475;DHT22;4274;52.012;8.448;2023-07-20T11:10:37;27.80;98.70
8475;DHT22;4274;52.012;8.448;2023-07-20T11:13:20;28.50;97.70
8475;DHT22;4274;52.012;8.448;2023-07-20T11:18:28;29.30;95.80
8475;DHT22;4274;52.012;8.448;2023-07-20T11:20:54;29.50;95.10
8475;DHT22;4274;52.012;8.448;2023-07-20T11:23:20;29.70;95.00
8475;DHT22;4274;52.012;8.448;2023-07-20T11:25:46;29.80;94.80
8475;DHT22;4274;52.012;8.448;2023-07-20T11:28:12;30.20;93.70
8475;DHT22;4274;52.012;8.448;2023-07-20T11:30:38;30.60;94.10
8475;DHT22;4274;52.012;8.448;2023-07-20T11:33:08;30.90;91.80
8475;DHT22;4274;52.012;8.448;2023-07-20T11:35:44;31.10;91.30
8475;DHT22;4274;52.012;8.448;2023-07-20T11:38:12;31.00;89.60
8475;DHT22;4274;52.012;8.448;2023-07-20T11:40:43;30.60;89.20
8475;DHT22;4274;52.012;8.448;2023-07-20T11:43:11;30.30;91.20
8475;DHT22;4274;52.012;8.448;2023-07-20T11:45:38;30.20;90.30
8475;DHT22;4274;52.012;8.448;2023-07-20T11:48:03;30.20;91.30
8475;DHT22;4274;52.012;8.448;2023-07-20T11:50:29;30.20;91.80
8475;DHT22;4274;52.012;8.448;2023-07-20T11:52:55;30.20;90.60
8475;DHT22;4274;52.012;8.448;2023-07-20T11:55:22;30.50;90.70
8475;DHT22;4274;52.012;8.448;2023-07-20T11:58:03;30.50;86.80
8475;DHT22;4274;52.012;8.448;2023-07-20T12:00:29;30.50;89.20
8475;DHT22;4274;52.012;8.448;2023-07-20T12:02:54;30.50;82.90
8475;DHT22;4274;52.012;8.448;2023-07-20T12:05:22;30.60;85.40
8475;DHT22;4274;52.012;8.448;2023-07-20T12:07:50;30.30;86.60
8475;DHT22;4274;52.012;8.448;2023-07-20T12:10:26;30.20;83.70
8475;DHT22;4274;52.012;8.448;2023-07-20T12:12:53;29.80;84.60
8475;DHT22;4274;52.012;8.448;2023-07-20T12:15:23;29.60;86.80
8475;DHT22;4274;52.012;8.448;2023-07-20T12:17:56;30.10;89.00
8475;DHT22;4274;52.012;8.448;2023-07-20T12:20:35;30.50;86.90
8475;DHT22;4274;52.012;8.448;2023-07-20T12:23:12;30.50;85.40
8475;DHT22;4274;52.012;8.448;2023-07-20T12:25:42;30.60;85.10
8475;DHT22;4274;52.012;8.448;2023-07-20T12:28:19;30.60;88.20
8475;DHT22;4274;52.012;8.448;2023-07-20T12:30:46;30.70;85.70
8475;DHT22;4274;52.012;8.448;2023-07-20T12:33:12;30.90;83.70
8475;DHT22;4274;52.012;8.448;2023-07-20T12:35:41;30.90;82.80
8475;DHT22;4274;52.012;8.448;2023-07-20T12:38:06;31.00;85.30
8475;DHT22;4274;52.012;8.448;2023-07-20T12:40:33;31.20;80.60
8475;DHT22;4274;52.012;8.448;2023-07-20T12:42:59;31.20;80.70
8475;DHT22;4274;52.012;8.448;2023-07-20T12:45:25;31.30;82.70
8475;DHT22;4274;52.012;8.448;2023-07-20T12:47:50;31.20;81.30
8475;DHT22;4274;52.012;8.448;2023-07-20T12:50:16;31.10;81.50
8475;DHT22;4274;52.012;8.448;2023-07-20T12:52:41;31.30;80.30
8475;DHT22;4274;52.012;8.448;2023-07-20T12:55:08;31.10;80.20
8475;DHT22;4274;52.012;8.448;2023-07-20T12:57:35;30.50;80.10
8475;DHT22;4274;52.012;8.448;2023-07-20T13:00:02;30.00;79.40
8475;DHT22;4274;52.012;8.448;2023-07-20T13:02:32;29.10;79.80
8475;DHT22;4274;52.012;8.448;2023-07-20T13:04:58;28.70;82.60
8475;DHT22;4274;52.012;8.448;2023-07-20T13:07:34;28.90;82.30
8475;DHT22;4274;52.012;8.448;2023-07-20T13:10:01;29.10;83.20
8475;DHT22;4274;52.012;8.448;2023-07-20T13:12:31;29.30;81.40
8475;DHT22;4274;52.012;8.448;2023-07-20T13:14:57;29.00;80.20
8475;DHT22;4274;52.012;8.448;2023-07-20T13:17:23;28.20;80.00
8475;DHT22;4274;52.012;8.448;2023-07-20T13:19:48;27.20;80.80
8475;DHT22;4274;52.012;8.448;2023-07-20T13:22:14;26.20;82.20
8475;DHT22;4274;52.012;8.448;2023-07-20T13:24:40;25.50;85.20
8475;DHT22;4274;52.012;8.448;2023-07-20T13:27:06;25.00;87.00
8475;DHT22;4274;52.012;8.448;2023-07-20T13:29:31;25.00;90.80
8475;DHT22;4274;52.012;8.448;2023-07-20T13:31:58;25.10;89.20
8475;DHT22;4274;52.012;8.448;2023-07-20T13:34:25;25.00;88.10
8475;DHT22;4274;52.012;8.448;2023-07-20T13:36:51;24.90;90.60
8475;DHT22;4274;52.012;8.448;2023-07-20T13:39:17;25.10;90.30
8475;DHT22;4274;52.012;8.448;2023-07-20T13:41:43;25.30;89.60
8475;DHT22;4274;52.012;8.448;2023-07-20T13:44:09;25.50;91.00
8475;DHT22;4274;52.012;8.448;2023-07-20T13:46:34;25.80;92.30
8475;DHT22;4274;52.012;8.448;2023-07-20T13:49:00;25.90;90.90
8475;DHT22;4274;52.012;8.448;2023-07-20T13:51:25;25.90;90.50
8475;DHT22;4274;52.012;8.448;2023-07-20T13:53:51;25.60;90.10
8475;DHT22;4274;52.012;8.448;2023-07-20T13:56:17;25.50;91.50
8475;DHT22;4274;52.012;8.448;2023-07-20T13:58:43;25.50;89.50
8475;DHT22;4274;52.012;8.448;2023-07-20T14:01:08;25.20;90.20
8475;DHT22;4274;52.012;8.448;2023-07-20T14:03:34;25.00;88.50
8475;DHT22;4274;52.012;8.448;2023-07-20T14:05:59;24.90;87.00
8475;DHT22;4274;52.012;8.448;2023-07-20T14:08:25;24.50;87.80
8475;DHT22;4274;52.012;8.448;2023-07-20T14:10:50;24.10;88.50
8475;DHT22;4274;52.012;8.448;2023-07-20T14:13:16;23.80;90.10
8475;DHT22;4274;52.012;8.448;2023-07-20T14:15:41;23.80;91.20
8475;DHT22;4274;52.012;8.448;2023-07-20T14:18:07;23.90;91.00
8475;DHT22;4274;52.012;8.448;2023-07-20T14:20:33;23.90;90.70
8475;DHT22;4274;52.012;8.448;2023-07-20T14:22:58;23.80;90.30
8475;DHT22;4274;52.012;8.448;2023-07-20T14:25:24;23.70;90.70
8475;DHT22;4274;52.012;8.448;2023-07-20T14:27:49;23.50;90.80
8475;DHT22;4274;52.012;8.448;2023-07-20T14:30:15;23.40;91.30
8475;DHT22;4274;52.012;8.448;2023-07-20T14:32:41;23.30;91.60
8475;DHT22;4274;52.012;8.448;2023-07-20T14:35:07;23.10;91.70
8475;DHT22;4274;52.012;8.448;2023-07-20T14:37:32;22.80;92.20
8475;DHT22;4274;52.012;8.448;2023-07-20T14:39:59;22.50;93.00
8475;DHT22;4274;52.012;8.448;2023-07-20T14:42:24;22.30;93.40
8475;DHT22;4274;52.012;8.448;2023-07-20T14:44:50;22.10;94.10
8475;DHT22;4274;52.012;8.448;2023-07-20T14:47:15;22.00;94.00
8475;DHT22;4274;52.012;8.448;2023-07-20T14:49:41;21.90;94.40
8475;DHT22;4274;52.012;8.448;2023-07-20T14:52:07;21.80;95.40
8475;DHT22;4274;52.012;8.448;2023-07-20T14:54:32;21.70;95.60
8475;DHT22;4274;52.012;8.448;2023-07-20T14:56:58;21.70;96.30
8475;DHT22;4274;52.012;8.448;2023-07-20T14:59:23;21.70;96.70
8475;DHT22;4274;52.012;8.448;2023-07-20T15:01:49;21.80;96.20
8475;DHT22;4274;52.012;8.448;2023-07-20T15:04:15;21.90;96.90
8475;DHT22;4274;52.012;8.448;2023-07-20T15:06:41;22.00;96.20
8475;DHT22;4274;52.012;8.448;2023-07-20T15:09:07;22.10;96.60
8475;DHT22;4274;52.012;8.448;2023-07-20T15:11:33;22.20;95.90
8475;DHT22;4274;52.012;8.448;2023-07-20T15:13:59;22.20;95.90
8475;DHT22;4274;52.012;8.448;2023-07-20T15:16:25;22.10;94.90
8475;DHT22;4274;52.012;8.448;2023-07-20T15:18:51;22.10;95.70
8475;DHT22;4274;52.012;8.448;2023-07-20T15:21:16;22.10;96.50
8475;DHT22;4274;52.012;8.448;2023-07-20T15:23:43;22.20;96.00
8475;DHT22;4274;52.012;8.448;2023-07-20T15:26:09;22.10;96.60
8475;DHT22;4274;52.012;8.448;2023-07-20T15:28:36;22.10;96.80
8475;DHT22;4274;52.012;8.448;2023-07-20T15:31:04;22.00;96.20
8475;DHT22;4274;52.012;8.448;2023-07-20T15:33:30;22.00;96.90
8475;DHT22;4274;52.012;8.448;2023-07-20T15:35:56;22.10;96.50
8475;DHT22;4274;52.012;8.448;2023-07-20T15:38:22;22.20;96.10
8475;DHT22;4274;52.012;8.448;2023-07-20T15:40:48;22.50;97.20
8475;DHT22;4274;52.012;8.448;2023-07-20T15:43:16;22.60;95.90
8475;DHT22;4274;52.012;8.448;2023-07-20T15:45:46;22.70;95.40
8475;DHT22;4274;52.012;8.448;2023-07-20T15:48:14;22.70;95.50
8475;DHT22;4274;52.012;8.448;2023-07-20T15:50:39;22.80;94.60
8475;DHT22;4274;52.012;8.448;2023-07-20T15:53:05;22.70;93.20
8475;DHT22;4274;52.012;8.448;2023-07-20T15:55:30;22.40;93.70
8475;DHT22;4274;52.012;8.448;2023-07-20T15:57:56;22.10;94.80
8475;DHT22;4274;52.012;8.448;2023-07-20T16:00:22;22.00;95.10
8475;DHT22;4274;52.012;8.448;2023-07-20T16:02:47;22.00;95.60
8475;DHT22;4274;52.012;8.448;2023-07-20T16:05:13;21.90;94.10
8475;DHT22;4274;52.012;8.448;2023-07-20T16:07:40;21.90;94.60
8475;DHT22;4274;52.012;8.448;2023-07-20T16:10:06;21.90;94.10
8475;DHT22;4274;52.012;8.448;2023-07-20T16:12:34;21.90;94.40
8475;DHT22;4274;52.012;8.448;2023-07-20T16:15:00;21.80;94.80
8475;DHT22;4274;52.012;8.448;2023-07-20T16:17:25;21.80;95.80
8475;DHT22;4274;52.012;8.448;2023-07-20T16:19:51;21.90;95.90